sensor_id;sensor_type;location;lat;lon;timestamp;P1;durP1;ratioP1;P2;durP2;ratioP2
21771;SDS011;11047;47.904;8.110;2022-10-19T00:02:25;4.60;;;2.00;;
21771;SDS011;11047;47.904;8.110;2022-10-19T00:04:52;6.28;;;2.35;;
21771;SDS011;11047;47.904;8.110;2022-10-19T00:07:18;8.05;;;1.90;;
21771;SDS011;11047;47.904;8.110;2022-10-19T00:09:45;9.25;;;2.20;;
21771;SDS011;11047;47.904;8.110;2022-10-19T00:12:13;3.72;;;1.90;;
21771;SDS011;11047;47.904;8.110;2022-10-19T00:14:40;13.35;;;2.00;;
21771;SDS011;11047;47.904;8.110;2022-10-19T00:17:08;12.50;;;1.90;;
21771;SDS011;11047;47.904;8.110;2022-10-19T00:19:35;11.55;;;2.17;;
21771;SDS011;11047;47.904;8.110;2022-10-19T00:22:02;11.77;;;2.30;;
21771;SDS011;11047;47.904;8.110;2022-10-19T00:24:29;3.65;;;1.77;;
21771;SDS011;11047;47.904;8.110;2022-10-19T00:26:56;5.22;;;2.20;;
21771;SDS011;11047;47.904;8.110;2022-10-19T00:29:23;4.22;;;2.22;;
21771;SDS011;11047;47.904;8.110;2022-10-19T00:31:50;3.40;;;1.65;;
21771;SDS011;11047;47.904;8.110;2022-10-19T00:34:18;1.60;;;1.50;;
21771;SDS011;11047;47.904;8.110;2022-10-19T00:36:45;2.90;;;1.70;;
21771;SDS011;11047;47.904;8.110;2022-10-19T00:39:13;4.18;;;1.95;;
21771;SDS011;11047;47.904;8.110;2022-10-19T00:41:42;3.72;;;1.80;;
21771;SDS011;11047;47.904;8.110;2022-10-19T00:47:18;1.65;;;1.55;;
21771;SDS011;11047;47.904;8.110;2022-10-19T00:49:50;4.93;;;1.75;;
21771;SDS011;11047;47.904;8.110;2022-10-19T00:52:18;4.63;;;1.52;;
21771;SDS011;11047;47.904;8.110;2022-10-19T00:54:47;1.63;;;1.52;;
21771;SDS011;11047;47.904;8.110;2022-10-19T00:57:17;4.13;;;1.80;;
21771;SDS011;11047;47.904;8.110;2022-10-19T00:59:45;3.30;;;1.70;;
21771;SDS011;11047;47.904;8.110;2022-10-19T01:02:13;4.15;;;1.55;;
21771;SDS011;11047;47.904;8.110;2022-10-19T01:04:43;3.20;;;1.73;;
21771;SDS011;11047;47.904;8.110;2022-10-19T01:07:14;2.55;;;1.50;;
21771;SDS011;11047;47.904;8.110;2022-10-19T01:09:41;2.05;;;1.80;;
21771;SDS011;11047;47.904;8.110;2022-10-19T01:12:10;5.03;;;1.85;;
21771;SDS011;11047;47.904;8.110;2022-10-19T01:14:49;3.85;;;1.90;;
21771;SDS011;11047;47.904;8.110;2022-10-19T01:17:26;4.05;;;1.70;;
21771;SDS011;11047;47.904;8.110;2022-10-19T01:20:25;1.70;;;1.60;;
21771;SDS011;11047;47.904;8.110;2022-10-19T01:23:28;2.17;;;1.50;;
21771;SDS011;11047;47.904;8.110;2022-10-19T01:26:07;6.13;;;1.90;;
21771;SDS011;11047;47.904;8.110;2022-10-19T01:28:47;1.60;;;1.50;;
21771;SDS011;11047;47.904;8.110;2022-10-19T01:31:26;4.82;;;1.73;;
21771;SDS011;11047;47.904;8.110;2022-10-19T01:34:03;2.53;;;2.10;;
21771;SDS011;11047;47.904;8.110;2022-10-19T01:36:36;8.32;;;3.08;;
21771;SDS011;11047;47.904;8.110;2022-10-19T01:39:07;3.30;;;2.05;;
21771;SDS011;11047;47.904;8.110;2022-10-19T01:41:39;2.30;;;2.10;;
21771;SDS011;11047;47.904;8.110;2022-10-19T01:46:41;3.92;;;1.80;;
21771;SDS011;11047;47.904;8.110;2022-10-19T01:49:10;4.43;;;2.10;;
21771;SDS011;11047;47.904;8.110;2022-10-19T01:51:43;4.07;;;2.05;;
21771;SDS011;11047;47.904;8.110;2022-10-19T01:54:14;3.60;;;2.08;;
21771;SDS011;11047;47.904;8.110;2022-10-19T01:56:43;3.83;;;2.13;;
21771;SDS011;11047;47.904;8.110;2022-10-19T01:59:12;4.78;;;2.00;;
21771;SDS011;11047;47.904;8.110;2022-10-19T02:01:44;5.00;;;2.17;;
21771;SDS011;11047;47.904;8.110;2022-10-19T02:04:14;5.78;;;1.85;;
21771;SDS011;11047;47.904;8.110;2022-10-19T02:06:44;4.57;;;1.88;;
21771;SDS011;11047;47.904;8.110;2022-10-19T02:09:12;3.67;;;2.08;;
21771;SDS011;11047;47.904;8.110;2022-10-19T02:11:42;7.25;;;2.20;;
21771;SDS011;11047;47.904;8.110;2022-10-19T02:14:12;5.95;;;2.30;;
21771;SDS011;11047;47.904;8.110;2022-10-19T02:16:43;2.88;;;1.90;;
21771;SDS011;11047;47.904;8.110;2022-10-19T02:19:15;4.30;;;2.08;;
21771;SDS011;11047;47.904;8.110;2022-10-19T02:21:43;4.50;;;2.00;;
21771;SDS011;11047;47.904;8.110;2022-10-19T02:24:10;5.57;;;2.50;;
21771;SDS011;11047;47.904;8.110;2022-10-19T02:26:37;5.75;;;2.33;;
21771;SDS011;11047;47.904;8.110;2022-10-19T02:29:05;5.00;;;2.70;;
21771;SDS011;11047;47.904;8.110;2022-10-19T02:31:33;5.30;;;2.53;;
21771;SDS011;11047;47.904;8.110;2022-10-19T02:34:02;6.35;;;2.50;;
21771;SDS011;11047;47.904;8.110;2022-10-19T02:36:29;3.00;;;2.38;;
21771;SDS011;11047;47.904;8.110;2022-10-19T02:38:56;7.30;;;2.47;;
21771;SDS011;11047;47.904;8.110;2022-10-19T02:41:23;10.63;;;2.75;;
21771;SDS011;11047;47.904;8.110;2022-10-19T02:43:57;14.27;;;3.05;;
21771;SDS011;11047;47.904;8.110;2022-10-19T02:46:27;6.75;;;3.05;;
21771;SDS011;11047;47.904;8.110;2022-10-19T02:49:00;9.82;;;3.85;;
21771;SDS011;11047;47.904;8.110;2022-10-19T02:51:30;11.35;;;3.10;;
21771;SDS011;11047;47.904;8.110;2022-10-19T02:53:59;14.68;;;3.70;;
21771;SDS011;11047;47.904;8.110;2022-10-19T02:56:25;12.88;;;4.10;;
21771;SDS011;11047;47.904;8.110;2022-10-19T02:58:53;16.63;;;4.15;;
21771;SDS011;11047;47.904;8.110;2022-10-19T03:01:20;19.55;;;4.90;;
21771;SDS011;11047;47.904;8.110;2022-10-19T03:03:47;15.50;;;4.05;;
21771;SDS011;11047;47.904;8.110;2022-10-19T03:06:15;9.45;;;3.88;;
21771;SDS011;11047;47.904;8.110;2022-10-19T03:08:42;10.60;;;3.92;;
21771;SDS011;11047;47.904;8.110;2022-10-19T03:11:09;17.00;;;4.40;;
21771;SDS011;11047;47.904;8.110;2022-10-19T03:13:36;19.85;;;5.43;;
21771;SDS011;11047;47.904;8.110;2022-10-19T03:16:06;20.85;;;5.55;;
21771;SDS011;11047;47.904;8.110;2022-10-19T03:18:34;13.63;;;5.45;;
21771;SDS011;11047;47.904;8.110;2022-10-19T03:21:01;13.82;;;4.47;;
21771;SDS011;11047;47.904;8.110;2022-10-19T03:23:34;16.27;;;4.45;;
21771;SDS011;11047;47.904;8.110;2022-10-19T03:26:01;29.52;;;6.68;;
21771;SDS011;11047;47.904;8.110;2022-10-19T03:28:29;16.65;;;4.72;;
21771;SDS011;11047;47.904;8.110;2022-10-19T03:30:56;15.30;;;4.50;;
21771;SDS011;11047;47.904;8.110;2022-10-19T03:33:23;18.85;;;4.90;;
21771;SDS011;11047;47.904;8.110;2022-10-19T03:35:51;15.60;;;4.13;;
21771;SDS011;11047;47.904;8.110;2022-10-19T03:38:39;18.77;;;4.93;;
21771;SDS011;11047;47.904;8.110;2022-10-19T03:41:06;21.73;;;5.00;;
21771;SDS011;11047;47.904;8.110;2022-10-19T03:43:33;14.32;;;4.32;;
21771;SDS011;11047;47.904;8.110;2022-10-19T03:46:00;16.52;;;4.63;;
21771;SDS011;11047;47.904;8.110;2022-10-19T03:48:27;16.75;;;4.88;;
21771;SDS011;11047;47.904;8.110;2022-10-19T03:50:57;15.68;;;4.85;;
21771;SDS011;11047;47.904;8.110;2022-10-19T03:53:24;13.07;;;4.50;;
21771;SDS011;11047;47.904;8.110;2022-10-19T03:55:54;14.52;;;5.32;;
21771;SDS011;11047;47.904;8.110;2022-10-19T03:58:26;15.45;;;5.63;;
21771;SDS011;11047;47.904;8.110;2022-10-19T04:00:53;22.40;;;5.35;;
21771;SDS011;11047;47.904;8.110;2022-10-19T04:03:20;20.52;;;5.50;;
21771;SDS011;11047;47.904;8.110;2022-10-19T04:05:47;15.85;;;5.65;;
21771;SDS011;11047;47.904;8.110;2022-10-19T04:08:13;13.13;;;5.93;;
21771;SDS011;11047;47.904;8.110;2022-10-19T04:10:40;20.95;;;6.35;;
21771;SDS011;11047;47.904;8.110;2022-10-19T04:13:09;19.50;;;6.10;;
21771;SDS011;11047;47.904;8.110;2022-10-19T04:15:36;20.10;;;7.32;;
21771;SDS011;11047;47.904;8.110;2022-10-19T04:18:03;21.60;;;7.63;;
21771;SDS011;11047;47.904;8.110;2022-10-19T04:20:29;26.95;;;7.65;;
21771;SDS011;11047;47.904;8.110;2022-10-19T04:22:57;25.58;;;7.30;;
21771;SDS011;11047;47.904;8.110;2022-10-19T04:25:24;18.40;;;7.82;;
21771;SDS011;11047;47.904;8.110;2022-10-19T04:27:51;21.25;;;7.60;;
21771;SDS011;11047;47.904;8.110;2022-10-19T04:30:20;29.83;;;7.45;;
21771;SDS011;11047;47.904;8.110;2022-10-19T04:32:46;21.13;;;7.50;;
21771;SDS011;11047;47.904;8.110;2022-10-19T04:35:13;21.50;;;7.05;;
21771;SDS011;11047;47.904;8.110;2022-10-19T04:37:40;23.33;;;6.80;;
21771;SDS011;11047;47.904;8.110;2022-10-19T04:40:08;18.65;;;7.22;;
21771;SDS011;11047;47.904;8.110;2022-10-19T04:42:36;22.98;;;8.38;;
21771;SDS011;11047;47.904;8.110;2022-10-19T04:45:03;21.65;;;7.82;;
21771;SDS011;11047;47.904;8.110;2022-10-19T04:47:32;21.77;;;7.72;;
21771;SDS011;11047;47.904;8.110;2022-10-19T04:49:59;20.15;;;8.13;;
21771;SDS011;11047;47.904;8.110;2022-10-19T04:52:26;18.55;;;7.15;;
21771;SDS011;11047;47.904;8.110;2022-10-19T04:54:53;22.35;;;8.60;;
21771;SDS011;11047;47.904;8.110;2022-10-19T04:57:19;22.92;;;7.65;;
21771;SDS011;11047;47.904;8.110;2022-10-19T04:59:46;19.45;;;7.70;;
21771;SDS011;11047;47.904;8.110;2022-10-19T05:02:13;20.27;;;7.97;;
21771;SDS011;11047;47.904;8.110;2022-10-19T05:04:41;19.15;;;7.63;;
21771;SDS011;11047;47.904;8.110;2022-10-19T05:07:08;17.33;;;6.50;;
21771;SDS011;11047;47.904;8.110;2022-10-19T05:09:35;19.98;;;7.47;;
21771;SDS011;11047;47.904;8.110;2022-10-19T05:12:04;19.05;;;7.07;;
21771;SDS011;11047;47.904;8.110;2022-10-19T05:14:31;18.77;;;6.82;;
21771;SDS011;11047;47.904;8.110;2022-10-19T05:16:59;20.75;;;6.90;;
21771;SDS011;11047;47.904;8.110;2022-10-19T05:19:25;23.48;;;7.90;;
21771;SDS011;11047;47.904;8.110;2022-10-19T05:21:54;23.02;;;7.45;;
21771;SDS011;11047;47.904;8.110;2022-10-19T05:24:21;20.85;;;6.97;;
21771;SDS011;11047;47.904;8.110;2022-10-19T05:26:48;18.08;;;6.07;;
21771;SDS011;11047;47.904;8.110;2022-10-19T05:29:15;17.98;;;6.50;;
21771;SDS011;11047;47.904;8.110;2022-10-19T05:31:42;15.50;;;6.43;;
21771;SDS011;11047;47.904;8.110;2022-10-19T05:34:09;16.08;;;5.85;;
21771;SDS011;11047;47.904;8.110;2022-10-19T05:36:36;16.00;;;6.05;;
21771;SDS011;11047;47.904;8.110;2022-10-19T05:39:07;16.95;;;5.93;;
21771;SDS011;11047;47.904;8.110;2022-10-19T05:41:37;13.32;;;6.07;;
21771;SDS011;11047;47.904;8.110;2022-10-19T05:44:05;14.45;;;6.18;;
21771;SDS011;11047;47.904;8.110;2022-10-19T05:46:32;13.45;;;5.75;;
21771;SDS011;11047;47.904;8.110;2022-10-19T05:48:59;14.10;;;6.80;;
21771;SDS011;11047;47.904;8.110;2022-10-19T05:51:26;20.02;;;6.88;;
21771;SDS011;11047;47.904;8.110;2022-10-19T05:53:53;20.98;;;7.13;;
21771;SDS011;11047;47.904;8.110;2022-10-19T05:56:23;18.50;;;5.57;;
21771;SDS011;11047;47.904;8.110;2022-10-19T05:58:51;21.15;;;6.13;;
21771;SDS011;11047;47.904;8.110;2022-10-19T06:01:20;17.33;;;6.00;;
21771;SDS011;11047;47.904;8.110;2022-10-19T06:03:49;19.90;;;5.72;;
21771;SDS011;11047;47.904;8.110;2022-10-19T06:06:17;16.63;;;5.90;;
21771;SDS011;11047;47.904;8.110;2022-10-19T06:08:44;22.67;;;6.65;;
21771;SDS011;11047;47.904;8.110;2022-10-19T06:11:13;15.80;;;6.63;;
21771;SDS011;11047;47.904;8.110;2022-10-19T06:13:43;25.13;;;7.80;;
21771;SDS011;11047;47.904;8.110;2022-10-19T06:16:11;22.23;;;7.43;;
21771;SDS011;11047;47.904;8.110;2022-10-19T06:18:40;23.58;;;7.03;;
21771;SDS011;11047;47.904;8.110;2022-10-19T06:21:09;24.95;;;6.63;;
21771;SDS011;11047;47.904;8.110;2022-10-19T06:23:37;19.50;;;6.70;;
21771;SDS011;11047;47.904;8.110;2022-10-19T06:26:05;19.33;;;7.22;;
21771;SDS011;11047;47.904;8.110;2022-10-19T06:28:34;13.68;;;6.57;;
21771;SDS011;11047;47.904;8.110;2022-10-19T06:31:03;14.27;;;6.18;;
21771;SDS011;11047;47.904;8.110;2022-10-19T06:33:30;22.25;;;7.40;;
21771;SDS011;11047;47.904;8.110;2022-10-19T06:36:03;16.15;;;6.15;;
21771;SDS011;11047;47.904;8.110;2022-10-19T06:38:31;26.70;;;8.00;;
21771;SDS011;11047;47.904;8.110;2022-10-19T06:40:58;14.35;;;6.82;;
21771;SDS011;11047;47.904;8.110;2022-10-19T06:43:25;16.13;;;7.55;;
21771;SDS011;11047;47.904;8.110;2022-10-19T06:45:52;15.35;;;6.68;;
21771;SDS011;11047;47.904;8.110;2022-10-19T06:48:20;14.32;;;7.10;;
21771;SDS011;11047;47.904;8.110;2022-10-19T06:50:54;19.98;;;8.93;;
21771;SDS011;11047;47.904;8.110;2022-10-19T06:53:21;24.55;;;8.15;;
21771;SDS011;11047;47.904;8.110;2022-10-19T06:55:48;29.92;;;10.57;;
21771;SDS011;11047;47.904;8.110;2022-10-19T06:58:15;25.77;;;9.65;;
21771;SDS011;11047;47.904;8.110;2022-10-19T07:00:42;19.23;;;9.38;;
21771;SDS011;11047;47.904;8.110;2022-10-19T07:03:09;23.60;;;9.77;;
21771;SDS011;11047;47.904;8.110;2022-10-19T07:05:37;32.42;;;9.50;;
21771;SDS011;11047;47.904;8.110;2022-10-19T07:08:04;21.63;;;10.45;;
21771;SDS011;11047;47.904;8.110;2022-10-19T07:10:32;23.55;;;9.40;;
21771;SDS011;11047;47.904;8.110;2022-10-19T07:12:59;26.55;;;9.95;;
21771;SDS011;11047;47.904;8.110;2022-10-19T07:15:26;20.58;;;11.00;;
21771;SDS011;11047;47.904;8.110;2022-10-19T07:17:52;17.75;;;9.27;;
21771;SDS011;11047;47.904;8.110;2022-10-19T07:20:19;17.73;;;8.40;;
21771;SDS011;11047;47.904;8.110;2022-10-19T07:22:48;18.23;;;10.50;;
21771;SDS011;11047;47.904;8.110;2022-10-19T07:25:14;19.25;;;8.95;;
21771;SDS011;11047;47.904;8.110;2022-10-19T07:27:41;15.30;;;8.50;;
21771;SDS011;11047;47.904;8.110;2022-10-19T07:30:09;16.33;;;9.02;;
21771;SDS011;11047;47.904;8.110;2022-10-19T07:32:36;18.83;;;9.32;;
21771;SDS011;11047;47.904;8.110;2022-10-19T07:35:03;21.77;;;9.82;;
21771;SDS011;11047;47.904;8.110;2022-10-19T07:37:30;16.63;;;9.88;;
21771;SDS011;11047;47.904;8.110;2022-10-19T07:39:59;13.73;;;8.75;;
21771;SDS011;11047;47.904;8.110;2022-10-19T07:42:27;25.95;;;11.40;;
21771;SDS011;11047;47.904;8.110;2022-10-19T07:44:54;19.75;;;10.80;;
21771;SDS011;11047;47.904;8.110;2022-10-19T07:47:21;21.38;;;10.52;;
21771;SDS011;11047;47.904;8.110;2022-10-19T07:49:48;22.63;;;10.48;;
21771;SDS011;11047;47.904;8.110;2022-10-19T07:52:15;20.98;;;10.98;;
21771;SDS011;11047;47.904;8.110;2022-10-19T07:54:42;17.33;;;10.38;;
21771;SDS011;11047;47.904;8.110;2022-10-19T07:57:12;19.80;;;10.82;;
21771;SDS011;11047;47.904;8.110;2022-10-19T07:59:39;18.85;;;10.02;;
21771;SDS011;11047;47.904;8.110;2022-10-19T08:02:07;19.90;;;9.82;;
21771;SDS011;11047;47.904;8.110;2022-10-19T08:04:39;15.73;;;9.85;;
21771;SDS011;11047;47.904;8.110;2022-10-19T08:07:06;16.63;;;10.18;;
21771;SDS011;11047;47.904;8.110;2022-10-19T08:09:33;16.58;;;10.63;;
21771;SDS011;11047;47.904;8.110;2022-10-19T08:12:00;17.55;;;10.20;;
21771;SDS011;11047;47.904;8.110;2022-10-19T08:14:28;16.67;;;10.30;;
21771;SDS011;11047;47.904;8.110;2022-10-19T08:16:55;19.58;;;11.45;;
21771;SDS011;11047;47.904;8.110;2022-10-19T08:19:22;17.48;;;9.93;;
21771;SDS011;11047;47.904;8.110;2022-10-19T08:21:49;15.13;;;10.40;;
21771;SDS011;11047;47.904;8.110;2022-10-19T08:24:17;15.65;;;9.93;;
21771;SDS011;11047;47.904;8.110;2022-10-19T08:26:45;17.35;;;10.07;;
21771;SDS011;11047;47.904;8.110;2022-10-19T08:29:15;13.95;;;9.45;;
21771;SDS011;11047;47.904;8.110;2022-10-19T08:31:45;15.68;;;9.52;;
21771;SDS011;11047;47.904;8.110;2022-10-19T08:34:13;15.48;;;10.90;;
21771;SDS011;11047;47.904;8.110;2022-10-19T08:36:41;15.70;;;10.45;;
21771;SDS011;11047;47.904;8.110;2022-10-19T08:39:08;15.32;;;10.25;;
21771;SDS011;11047;47.904;8.110;2022-10-19T08:44:26;13.27;;;9.85;;
21771;SDS011;11047;47.904;8.110;2022-10-19T08:47:19;14.10;;;9.70;;
21771;SDS011;11047;47.904;8.110;2022-10-19T08:49:58;14.50;;;10.52;;
21771;SDS011;11047;47.904;8.110;2022-10-19T08:52:27;13.10;;;9.48;;
21771;SDS011;11047;47.904;8.110;2022-10-19T08:54:56;14.73;;;9.77;;
21771;SDS011;11047;47.904;8.110;2022-10-19T08:57:28;17.45;;;9.70;;
21771;SDS011;11047;47.904;8.110;2022-10-19T09:00:04;15.27;;;9.40;;
21771;SDS011;11047;47.904;8.110;2022-10-19T09:02:42;12.88;;;9.05;;
21771;SDS011;11047;47.904;8.110;2022-10-19T09:05:19;11.73;;;7.90;;
21771;SDS011;11047;47.904;8.110;2022-10-19T09:07:54;14.45;;;7.60;;
21771;SDS011;11047;47.904;8.110;2022-10-19T09:10:22;10.85;;;6.95;;
21771;SDS011;11047;47.904;8.110;2022-10-19T09:12:54;7.07;;;6.35;;
21771;SDS011;11047;47.904;8.110;2022-10-19T09:15:24;12.60;;;7.00;;
21771;SDS011;11047;47.904;8.110;2022-10-19T09:17:55;11.40;;;6.38;;
21771;SDS011;11047;47.904;8.110;2022-10-19T09:20:24;7.30;;;5.60;;
21771;SDS011;11047;47.904;8.110;2022-10-19T09:25:28;5.72;;;4.88;;
21771;SDS011;11047;47.904;8.110;2022-10-19T09:28:00;8.63;;;5.20;;
21771;SDS011;11047;47.904;8.110;2022-10-19T09:30:34;6.63;;;4.85;;
21771;SDS011;11047;47.904;8.110;2022-10-19T09:33:10;7.95;;;5.45;;
21771;SDS011;11047;47.904;8.110;2022-10-19T09:35:42;5.38;;;4.43;;
21771;SDS011;11047;47.904;8.110;2022-10-19T09:38:10;6.18;;;4.80;;
21771;SDS011;11047;47.904;8.110;2022-10-19T09:40:41;10.38;;;5.20;;
21771;SDS011;11047;47.904;8.110;2022-10-19T09:43:09;6.50;;;4.55;;
21771;SDS011;11047;47.904;8.110;2022-10-19T09:45:47;6.78;;;4.38;;
21771;SDS011;11047;47.904;8.110;2022-10-19T09:48:19;8.75;;;4.22;;
21771;SDS011;11047;47.904;8.110;2022-10-19T09:50:53;5.28;;;4.32;;
21771;SDS011;11047;47.904;8.110;2022-10-19T09:53:22;6.47;;;4.00;;
21771;SDS011;11047;47.904;8.110;2022-10-19T09:55:52;7.57;;;3.72;;
21771;SDS011;11047;47.904;8.110;2022-10-19T09:58:24;4.28;;;3.85;;
21771;SDS011;11047;47.904;8.110;2022-10-19T10:00:52;7.75;;;4.32;;
21771;SDS011;11047;47.904;8.110;2022-10-19T10:03:23;5.97;;;4.63;;
21771;SDS011;11047;47.904;8.110;2022-10-19T10:05:52;4.30;;;3.65;;
21771;SDS011;11047;47.904;8.110;2022-10-19T10:08:22;5.05;;;4.07;;
21771;SDS011;11047;47.904;8.110;2022-10-19T10:10:52;4.75;;;3.47;;
21771;SDS011;11047;47.904;8.110;2022-10-19T10:13:23;4.93;;;4.18;;
21771;SDS011;11047;47.904;8.110;2022-10-19T10:15:53;6.10;;;4.22;;
21771;SDS011;11047;47.904;8.110;2022-10-19T10:18:24;7.15;;;4.20;;
21771;SDS011;11047;47.904;8.110;2022-10-19T10:20:57;5.75;;;3.83;;
21771;SDS011;11047;47.904;8.110;2022-10-19T10:23:27;4.73;;;4.30;;
21771;SDS011;11047;47.904;8.110;2022-10-19T10:25:59;6.47;;;4.50;;
21771;SDS011;11047;47.904;8.110;2022-10-19T10:28:27;6.50;;;3.53;;
21771;SDS011;11047;47.904;8.110;2022-10-19T10:30:58;6.18;;;4.43;;
21771;SDS011;11047;47.904;8.110;2022-10-19T10:33:28;5.40;;;4.28;;
21771;SDS011;11047;47.904;8.110;2022-10-19T10:36:00;5.72;;;4.78;;
21771;SDS011;11047;47.904;8.110;2022-10-19T10:38:30;8.40;;;5.13;;
21771;SDS011;11047;47.904;8.110;2022-10-19T10:40:59;8.73;;;4.72;;
21771;SDS011;11047;47.904;8.110;2022-10-19T10:43:32;5.18;;;4.38;;
21771;SDS011;11047;47.904;8.110;2022-10-19T10:46:00;8.52;;;4.22;;
21771;SDS011;11047;47.904;8.110;2022-10-19T10:48:33;6.90;;;3.90;;
21771;SDS011;11047;47.904;8.110;2022-10-19T10:51:06;5.87;;;3.67;;
21771;SDS011;11047;47.904;8.110;2022-10-19T10:53:43;7.32;;;3.42;;
21771;SDS011;11047;47.904;8.110;2022-10-19T10:56:21;5.25;;;3.53;;
21771;SDS011;11047;47.904;8.110;2022-10-19T10:58:51;5.70;;;4.28;;
21771;SDS011;11047;47.904;8.110;2022-10-19T11:01:25;6.83;;;4.27;;
21771;SDS011;11047;47.904;8.110;2022-10-19T11:03:58;4.30;;;3.72;;
21771;SDS011;11047;47.904;8.110;2022-10-19T11:06:27;6.70;;;3.95;;
21771;SDS011;11047;47.904;8.110;2022-10-19T11:08:58;4.63;;;4.13;;
21771;SDS011;11047;47.904;8.110;2022-10-19T11:11:33;7.18;;;3.60;;
21771;SDS011;11047;47.904;8.110;2022-10-19T11:14:05;10.13;;;3.78;;
21771;SDS011;11047;47.904;8.110;2022-10-19T11:16:42;6.75;;;2.90;;
21771;SDS011;11047;47.904;8.110;2022-10-19T11:19:14;3.75;;;3.35;;
21771;SDS011;11047;47.904;8.110;2022-10-19T11:21:47;8.20;;;2.85;;
21771;SDS011;11047;47.904;8.110;2022-10-19T11:24:21;5.38;;;3.35;;
21771;SDS011;11047;47.904;8.110;2022-10-19T11:27:00;12.18;;;3.95;;
21771;SDS011;11047;47.904;8.110;2022-10-19T11:29:41;7.60;;;3.70;;
21771;SDS011;11047;47.904;8.110;2022-10-19T11:32:19;8.02;;;3.83;;
21771;SDS011;11047;47.904;8.110;2022-10-19T11:35:01;7.45;;;3.15;;
21771;SDS011;11047;47.904;8.110;2022-10-19T11:37:47;4.93;;;3.10;;
21771;SDS011;11047;47.904;8.110;2022-10-19T11:40:25;13.95;;;3.83;;
21771;SDS011;11047;47.904;8.110;2022-10-19T11:43:00;6.75;;;3.40;;
21771;SDS011;11047;47.904;8.110;2022-10-19T11:45:34;6.38;;;3.22;;
21771;SDS011;11047;47.904;8.110;2022-10-19T11:48:19;8.25;;;3.60;;
21771;SDS011;11047;47.904;8.110;2022-10-19T11:51:00;6.50;;;3.47;;
21771;SDS011;11047;47.904;8.110;2022-10-19T11:53:33;4.78;;;3.58;;
21771;SDS011;11047;47.904;8.110;2022-10-19T11:56:10;5.05;;;3.20;;
21771;SDS011;11047;47.904;8.110;2022-10-19T11:58:44;5.45;;;3.58;;
21771;SDS011;11047;47.904;8.110;2022-10-19T12:01:24;5.60;;;3.13;;
21771;SDS011;11047;47.904;8.110;2022-10-19T12:04:06;6.68;;;3.80;;
21771;SDS011;11047;47.904;8.110;2022-10-19T12:07:05;5.65;;;3.38;;
21771;SDS011;11047;47.904;8.110;2022-10-19T12:09:45;7.55;;;2.45;;
21771;SDS011;11047;47.904;8.110;2022-10-19T12:12:26;4.95;;;3.22;;
21771;SDS011;11047;47.904;8.110;2022-10-19T12:14:59;2.95;;;2.28;;
21771;SDS011;11047;47.904;8.110;2022-10-19T12:17:45;6.22;;;2.92;;
21771;SDS011;11047;47.904;8.110;2022-10-19T12:20:16;5.35;;;2.42;;
21771;SDS011;11047;47.904;8.110;2022-10-19T12:22:48;9.73;;;3.60;;
21771;SDS011;11047;47.904;8.110;2022-10-19T12:25:16;4.03;;;2.35;;
21771;SDS011;11047;47.904;8.110;2022-10-19T12:27:45;5.00;;;3.15;;
21771;SDS011;11047;47.904;8.110;2022-10-19T12:30:15;3.25;;;2.65;;
21771;SDS011;11047;47.904;8.110;2022-10-19T12:32:47;7.50;;;2.35;;
21771;SDS011;11047;47.904;8.110;2022-10-19T12:35:25;10.65;;;2.80;;
21771;SDS011;11047;47.904;8.110;2022-10-19T12:38:12;4.63;;;2.67;;
21771;SDS011;11047;47.904;8.110;2022-10-19T12:40:45;9.48;;;2.90;;
21771;SDS011;11047;47.904;8.110;2022-10-19T12:43:18;6.60;;;2.92;;
21771;SDS011;11047;47.904;8.110;2022-10-19T12:45:51;5.28;;;3.40;;
21771;SDS011;11047;47.904;8.110;2022-10-19T12:48:25;7.00;;;2.75;;
21771;SDS011;11047;47.904;8.110;2022-10-19T12:50:59;4.93;;;2.65;;
21771;SDS011;11047;47.904;8.110;2022-10-19T12:53:29;16.50;;;3.00;;
21771;SDS011;11047;47.904;8.110;2022-10-19T12:56:01;4.78;;;3.20;;
21771;SDS011;11047;47.904;8.110;2022-10-19T12:58:30;8.40;;;2.67;;
21771;SDS011;11047;47.904;8.110;2022-10-19T13:01:02;4.38;;;3.10;;
21771;SDS011;11047;47.904;8.110;2022-10-19T13:03:32;3.60;;;2.83;;
21771;SDS011;11047;47.904;8.110;2022-10-19T13:06:02;3.90;;;2.95;;
21771;SDS011;11047;47.904;8.110;2022-10-19T13:08:38;5.72;;;3.08;;
21771;SDS011;11047;47.904;8.110;2022-10-19T13:11:09;4.07;;;2.92;;
21771;SDS011;11047;47.904;8.110;2022-10-19T13:13:52;4.13;;;2.60;;
21771;SDS011;11047;47.904;8.110;2022-10-19T13:19:23;5.28;;;2.60;;
21771;SDS011;11047;47.904;8.110;2022-10-19T13:21:51;3.33;;;2.10;;
21771;SDS011;11047;47.904;8.110;2022-10-19T13:24:36;11.27;;;2.42;;
21771;SDS011;11047;47.904;8.110;2022-10-19T13:30:03;6.90;;;2.35;;
21771;SDS011;11047;47.904;8.110;2022-10-19T13:32:32;3.28;;;2.08;;
21771;SDS011;11047;47.904;8.110;2022-10-19T13:35:22;7.88;;;2.28;;
21771;SDS011;11047;47.904;8.110;2022-10-19T13:41:02;3.72;;;1.70;;
21771;SDS011;11047;47.904;8.110;2022-10-19T13:43:33;4.97;;;1.70;;
21771;SDS011;11047;47.904;8.110;2022-10-19T13:46:10;2.67;;;1.65;;
21771;SDS011;11047;47.904;8.110;2022-10-19T13:51:47;2.17;;;1.50;;
21771;SDS011;11047;47.904;8.110;2022-10-19T13:54:26;5.32;;;1.98;;
21771;SDS011;11047;47.904;8.110;2022-10-19T13:57:18;2.45;;;1.27;;
21771;SDS011;11047;47.904;8.110;2022-10-19T14:00:03;4.65;;;1.73;;
21771;SDS011;11047;47.904;8.110;2022-10-19T14:02:44;7.60;;;1.83;;
21771;SDS011;11047;47.904;8.110;2022-10-19T14:08:53;7.07;;;1.73;;
21771;SDS011;11047;47.904;8.110;2022-10-19T14:11:56;6.03;;;1.80;;
21771;SDS011;11047;47.904;8.110;2022-10-19T14:14:37;5.97;;;1.88;;
21771;SDS011;11047;47.904;8.110;2022-10-19T14:17:16;4.07;;;1.45;;
21771;SDS011;11047;47.904;8.110;2022-10-19T14:19:45;2.67;;;1.42;;
21771;SDS011;11047;47.904;8.110;2022-10-19T14:22:18;7.53;;;1.92;;
21771;SDS011;11047;47.904;8.110;2022-10-19T14:27:15;4.38;;;1.70;;
21771;SDS011;11047;47.904;8.110;2022-10-19T14:29:48;5.88;;;1.25;;
21771;SDS011;11047;47.904;8.110;2022-10-19T14:32:19;4.45;;;1.67;;
21771;SDS011;11047;47.904;8.110;2022-10-19T14:34:48;3.78;;;1.55;;
21771;SDS011;11047;47.904;8.110;2022-10-19T14:37:16;8.95;;;1.83;;
21771;SDS011;11047;47.904;8.110;2022-10-19T14:40:02;3.78;;;1.48;;
21771;SDS011;11047;47.904;8.110;2022-10-19T14:42:34;4.85;;;1.65;;
21771;SDS011;11047;47.904;8.110;2022-10-19T14:45:05;4.90;;;1.80;;
21771;SDS011;11047;47.904;8.110;2022-10-19T14:47:37;7.28;;;2.35;;
21771;SDS011;11047;47.904;8.110;2022-10-19T14:50:21;5.43;;;1.67;;
21771;SDS011;11047;47.904;8.110;2022-10-19T14:52:54;9.80;;;3.53;;
21771;SDS011;11047;47.904;8.110;2022-10-19T14:55:28;8.10;;;2.30;;
21771;SDS011;11047;47.904;8.110;2022-10-19T14:58:01;5.32;;;2.03;;
21771;SDS011;11047;47.904;8.110;2022-10-19T15:00:35;4.88;;;1.42;;
21771;SDS011;11047;47.904;8.110;2022-10-19T15:03:03;2.70;;;1.20;;
21771;SDS011;11047;47.904;8.110;2022-10-19T15:05:32;5.90;;;1.60;;
21771;SDS011;11047;47.904;8.110;2022-10-19T15:08:05;4.80;;;2.53;;
21771;SDS011;11047;47.904;8.110;2022-10-19T15:10:38;5.15;;;1.38;;
21771;SDS011;11047;47.904;8.110;2022-10-19T15:13:10;3.15;;;1.13;;
21771;SDS011;11047;47.904;8.110;2022-10-19T15:15:50;5.18;;;1.58;;
21771;SDS011;11047;47.904;8.110;2022-10-19T15:18:18;4.75;;;2.03;;
21771;SDS011;11047;47.904;8.110;2022-10-19T15:20:47;6.65;;;1.50;;
21771;SDS011;11047;47.904;8.110;2022-10-19T15:23:34;5.45;;;2.75;;
21771;SDS011;11047;47.904;8.110;2022-10-19T15:26:12;4.82;;;2.38;;
21771;SDS011;11047;47.904;8.110;2022-10-19T15:28:41;5.97;;;2.00;;
21771;SDS011;11047;47.904;8.110;2022-10-19T15:31:14;6.72;;;2.53;;
21771;SDS011;11047;47.904;8.110;2022-10-19T15:33:52;3.00;;;1.58;;